Time;durP1;ratioP1;P1;durP2;ratioP2;P2;SDS_P1;SDS_P2;PMS_P1;PMS_P2;Temp;Humidity;BMP_temperature;BMP_pressure;BME280_temperature;BME280_humidity;BME280_pressure;Samples;Min_cycle;Max_cycle;Signal;HPM_P1;HPM_P2
2022/06/01 00:01:00;;;;;;;9.70;7.93;;;14.50;99.90;;;14.63;83.54;101204.59;4845954;29;20106;-66
2022/06/01 00:03:35;;;;;;;9.38;7.60;;;14.40;99.90;;;13.97;86.24;101201.09;4846267;29;20117;-67
2022/06/01 00:06:04;;;;;;;10.98;9.32;;;13.80;99.90;;;13.80;87.41;101202.19;4846405;29;20493;-67
2022/06/01 00:08:32;;;;;;;11.98;10.85;;;13.40;99.90;;;13.92;87.69;101165.66;4845823;29;20137;-67
2022/06/01 00:11:01;;;;;;;14.48;12.88;;;13.60;99.90;;;12.23;86.75;100902.09;4845687;29;20106;-67
2022/06/01 00:13:30;;;;;;;18.42;16.42;;;13.50;99.90;;;13.50;88.45;101179.50;4846004;29;20128;-67
2022/06/01 00:15:58;;;;;;;20.45;17.27;;;13.20;99.90;;;13.20;89.96;101172.72;4845892;29;20056;-67
2022/06/01 00:18:26;;;;;;;19.38;17.38;;;12.80;99.90;;;13.57;90.27;101187.38;4845808;29;20109;-67
2022/06/01 00:20:56;;;;;;;19.67;17.67;;;13.10;99.90;;;13.38;90.19;101180.50;4845369;29;20085;-67
2022/06/01 00:23:24;;;;;;;16.75;14.88;;;13.00;99.90;;;13.29;90.35;101190.34;4845573;29;20084;-67
2022/06/01 00:25:53;;;;;;;12.57;11.02;;;12.80;99.90;;;13.36;89.28;101182.31;4845275;29;20217;-67
2022/06/01 00:28:22;;;;;;;10.70;9.70;;;13.00;99.90;;;13.27;87.98;101150.53;4845397;29;20493;-67
2022/06/01 00:30:50;;;;;;;11.07;9.98;;;13.20;99.90;;;13.61;87.69;101198.84;4845420;29;20061;-67
2022/06/01 00:33:19;;;;;;;12.23;10.02;;;13.30;99.90;;;13.42;88.02;101191.97;4845436;29;20097;-67
2022/06/01 00:35:47;;;;;;;12.18;11.00;;;13.10;99.90;;;12.75;88.68;101082.00;4845324;29;20381;-67
2022/06/01 00:38:17;;;;;;;12.77;11.38;;;13.00;99.90;;;13.23;90.26;101199.28;4845543;29;20106;-67
2022/06/01 00:40:46;;;;;;;18.63;12.55;;;12.80;99.90;;;13.21;90.49;101185.13;4845868;29;20073;-67
2022/06/01 00:43:22;;;;;;;13.60;12.15;;;12.90;99.90;;;13.24;90.36;101174.44;4845189;29;20115;-67
2022/06/01 00:45:52;;;;;;;15.32;12.90;;;13.00;99.90;;;13.31;90.79;101194.78;4828590;29;20050;-67
2022/06/01 00:48:24;;;;;;;14.50;13.00;;;12.90;99.90;;;13.48;91.35;101203.44;4843856;29;20090;-67
2022/06/01 00:50:52;;;;;;;15.23;13.75;;;13.00;99.90;;;13.57;90.76;101203.31;4844764;29;20042;-67
2022/06/01 00:53:25;;;;;;;15.55;13.63;;;13.10;99.90;;;13.77;89.71;101203.09;4845231;29;20412;-67
2022/06/01 00:55:59;;;;;;;16.85;14.15;;;13.30;99.90;;;13.93;89.06;101203.78;4844780;29;20122;-67
2022/06/01 00:58:31;;;;;;;15.45;13.90;;;13.50;99.90;;;13.75;88.61;101206.66;4845205;29;20477;-68
2022/06/01 01:01:00;;;;;;;14.77;13.38;;;13.40;99.90;;;13.46;90.93;101204.34;4844396;29;20049;-67
2022/06/01 01:03:34;;;;;;;17.77;14.88;;;13.10;99.90;;;13.32;91.86;101199.16;4844895;29;20411;-68
2022/06/01 01:06:13;;;;;;;16.52;14.75;;;12.90;99.90;;;13.39;91.56;101203.50;4844878;29;20110;-67
2022/06/01 01:08:43;;;;;;;18.52;15.18;;;12.90;99.90;;;13.72;90.79;101206.72;4844848;29;20049;-67
2022/06/01 01:11:13;;;;;;;18.48;15.88;;;13.20;99.90;;;13.88;89.45;101200.31;4828293;29;20054;-67
2022/06/01 01:13:47;;;;;;;24.80;15.40;;;13.40;99.90;;;14.10;88.80;101199.13;4844975;29;20057;-67
2022/06/01 01:16:18;;;;;;;16.60;14.90;;;13.70;99.90;;;14.21;87.96;101200.72;4844339;29;20045;-67
2022/06/01 01:18:47;;;;;;;19.70;17.65;;;13.80;99.90;;;14.04;87.03;101178.81;4844831;29;20053;-67
2022/06/01 01:21:26;;;;;;;22.80;20.40;;;13.90;99.90;;;14.15;86.79;101203.47;4844589;29;20093;-67
2022/06/01 01:24:07;;;;;;;21.48;18.80;;;13.80;99.90;;;13.85;87.48;101203.88;4844518;29;20114;-67
2022/06/01 01:26:37;;;;;;;21.27;19.15;;;13.50;99.90;;;13.95;88.46;101199.34;4844450;29;20104;-67
2022/06/01 01:29:09;;;;;;;22.52;20.23;;;13.50;99.90;;;13.99;87.34;101198.41;4844668;29;20106;-68
2022/06/01 01:31:40;;;;;;;21.15;18.90;;;13.50;99.90;;;13.95;87.49;101188.69;4844436;29;20046;-67
2022/06/01 01:34:09;;;;;;;21.30;19.08;;;13.50;99.90;;;13.88;87.50;101189.69;4844395;29;20058;-67
2022/06/01 01:36:43;;;;;;;22.17;19.98;;;13.50;99.90;;;13.84;88.16;101177.31;4844730;29;20102;-67
2022/06/01 01:39:14;;;;;;;20.58;18.38;;;13.40;99.90;;;13.66;88.41;101164.25;4844297;29;20114;-67
2022/06/01 01:41:46;;;;;;;;;;;13.30;99.90;;;13.35;89.48;101166.38;4844637;29;20125;-67
2022/06/01 01:44:19;;;;;;;18.17;16.05;;;13.10;99.90;;;13.26;89.98;101161.16;4844505;29;19925;-67
2022/06/01 01:46:50;;;;;;;21.05;17.85;;;13.00;99.90;;;12.43;90.21;101005.34;4844351;29;20434;-67
2022/06/01 01:49:21;;;;;;;18.50;16.60;;;12.90;99.90;;;13.26;90.45;101148.75;4844768;29;20070;-67
2022/06/01 01:51:53;;;;;;;17.63;15.40;;;13.00;99.90;;;13.24;90.21;101141.72;4843996;29;20517;-67
2022/06/01 01:54:36;;;;;;;18.63;16.67;;;13.00;99.90;;;13.17;89.38;101156.84;4844183;29;20572;-67
2022/06/01 01:57:20;;;;;;;18.65;16.65;;;13.00;99.90;;;13.37;89.26;101170.78;4844092;29;20428;-67
2022/06/01 02:00:04;;;;;;;18.52;16.50;;;13.10;99.90;;;13.21;89.58;101142.63;4824746;29;20062;-67
2022/06/01 02:02:41;;;;;;;16.40;14.70;;;13.10;99.90;;;13.23;89.56;101154.13;4825851;29;20053;-67
2022/06/01 02:08:14;;;;;;;17.92;14.75;;;13.10;99.90;;;13.61;89.48;101182.03;4825488;29;20051;-67
2022/06/01 02:13:31;;;;;;;18.45;16.65;;;13.50;99.90;;;14.05;88.87;101182.34;4825674;29;20070;-67
2022/06/01 02:16:01;;;;;;;20.98;15.73;;;13.70;99.90;;;14.21;87.92;101195.41;4825266;29;20493;-67
2022/06/01 02:18:38;;;;;;;16.48;14.88;;;13.80;99.90;;;14.36;87.49;101207.66;4839557;29;20472;-67
2022/06/01 02:21:15;;;;;;;16.00;14.18;;;14.00;99.90;;;14.49;86.78;101211.91;4825608;29;20494;-67
2022/06/01 02:23:44;;;;;;;14.90;13.50;;;14.10;99.90;;;14.54;86.10;101206.53;4824466;29;20100;-67
2022/06/01 02:26:12;;;;;;;16.55;12.20;;;14.20;99.90;;;14.66;85.86;101201.88;4825482;29;20058;-67
2022/06/01 02:28:44;;;;;;;12.13;10.95;;;14.30;99.90;;;14.71;84.69;101202.66;4839436;29;20579;-67
2022/06/01 02:31:15;;;;;;;12.25;10.80;;;14.30;99.90;;;14.78;84.12;101201.69;4825212;29;20107;-67
2022/06/01 02:33:47;;;;;;;10.95;9.85;;;14.40;99.90;;;14.80;83.46;101204.31;4825158;29;20137;-67
2022/06/01 02:36:20;;;;;;;10.23;9.23;;;14.40;99.90;;;14.75;82.60;101185.75;4825084;29;20066;-67
2022/06/01 02:38:53;;;;;;;10.07;8.75;;;14.50;99.90;;;14.74;82.11;101180.44;4825369;29;20054;-67
2022/06/01 02:44:08;;;;;;;8.43;7.72;;;14.50;99.90;;;15.05;80.64;101211.88;4825027;29;20627;-67
2022/06/01 02:46:37;;;;;;;10.80;8.23;;;14.70;99.90;;;14.80;79.62;101159.94;4825122;29;20097;-68
2022/06/01 02:49:06;;;;;;;9.65;8.07;;;14.60;99.90;;;14.91;78.96;101191.69;4825152;29;20497;-67
2022/06/01 02:51:34;;;;;;;8.82;7.90;;;14.60;99.90;;;14.56;78.10;101192.25;4824820;29;20049;-67
2022/06/01 02:54:02;;;;;;;9.10;7.82;;;14.40;99.90;;;14.31;78.65;101177.56;4824867;29;20049;-67
2022/06/01 02:56:31;;;;;;;9.45;8.55;;;14.20;99.90;;;14.39;78.53;101186.31;4824666;29;20051;-67
2022/06/01 02:58:59;;;;;;;10.02;8.98;;;14.10;99.90;;;14.22;78.87;101183.00;4830853;29;20086;-67
2022/06/01 03:01:29;;;;;;;9.27;8.40;;;14.00;99.90;;;14.20;79.05;101175.03;4842801;29;20053;-67
2022/06/01 03:03:57;;;;;;;9.18;8.38;;;13.90;99.90;;;14.21;78.37;101183.88;4843026;29;20058;-67
2022/06/01 03:06:26;;;;;;;11.82;8.68;;;13.90;99.90;;;14.06;78.54;101184.09;4826557;29;20053;-67
2022/06/01 03:09:14;;;;;;;11.20;8.93;;;13.70;99.90;;;13.93;78.41;101182.50;4842743;29;20050;-67
2022/06/01 03:11:43;;;;;;;10.57;9.55;;;13.60;99.90;;;13.88;78.50;101189.69;4842648;29;20049;-67
2022/06/01 03:14:11;;;;;;;13.90;12.60;;;13.60;99.90;;;13.55;79.17;101151.97;4842519;29;20128;-67
2022/06/01 03:16:41;;;;;;;11.38;10.27;;;13.40;99.90;;;13.70;79.23;101184.59;4842766;29;20077;-67
2022/06/01 03:19:11;;;;;;;14.10;12.80;;;13.40;99.90;;;13.61;79.34;101193.53;4842523;29;20141;-67
2022/06/01 03:21:40;;;;;;;14.05;12.55;;;13.30;99.90;;;13.65;79.43;101187.28;4842460;29;20046;-67
2022/06/01 03:24:09;;;;;;;13.98;12.18;;;13.20;99.90;;;13.54;79.69;101183.88;4842116;29;20045;-67
2022/06/01 03:26:38;;;;;;;13.02;11.55;;;13.20;99.90;;;13.57;80.08;101187.38;4842437;29;20042;-67
2022/06/01 03:29:06;;;;;;;13.98;12.68;;;13.20;99.90;;;13.63;80.36;101170.47;4826343;29;20437;-67
2022/06/01 03:31:34;;;;;;;12.85;11.50;;;13.20;99.90;;;13.55;80.10;101165.25;4842348;29;20054;-67
2022/06/01 03:34:04;;;;;;;14.10;12.60;;;13.30;99.90;;;13.21;79.68;101091.25;4842406;29;20050;-67
2022/06/01 03:36:33;;;;;;;15.63;12.07;;;13.30;99.90;;;13.77;80.38;101181.81;4842296;29;20101;-67
2022/06/01 03:39:01;;;;;;;13.73;12.52;;;13.30;99.90;;;13.87;80.12;101180.81;4842452;29;20054;-68
2022/06/01 03:41:30;;;;;;;14.07;12.68;;;13.40;99.90;;;13.96;80.32;101174.47;4842453;29;20141;-67
2022/06/01 03:46:44;;;;;;;12.85;11.65;;;13.50;99.90;;;13.93;79.65;101177.19;4842669;29;20128;-67
2022/06/01 03:49:14;;;;;;;16.33;11.73;;;13.50;99.90;;;13.94;79.52;101185.16;4842141;29;20408;-68
2022/06/01 03:51:42;;;;;;;12.43;11.30;;;13.60;99.90;;;14.01;79.63;101184.19;4842726;29;20119;-67
2022/06/01 03:54:10;;;;;;;12.13;10.95;;;13.50;99.90;;;13.95;79.77;101194.00;4842156;29;20485;-67
2022/06/01 03:56:39;;;;;;;12.65;11.40;;;13.60;99.90;;;13.95;79.85;101202.00;4842375;29;20132;-67
2022/06/01 03:59:07;;;;;;;12.98;11.77;;;13.50;99.90;;;13.94;79.42;101197.56;4842142;29;20065;-67
2022/06/01 04:01:35;;;;;;;12.68;11.57;;;13.50;99.90;;;13.89;79.27;101192.31;4841966;29;20504;-67
2022/06/01 04:04:04;;;;;;;12.38;11.15;;;13.50;99.90;;;13.78;79.41;101198.66;4825952;29;20061;-67
2022/06/01 04:06:34;;;;;;;12.05;10.95;;;13.40;99.90;;;13.77;79.61;101196.88;4841915;29;20133;-67
2022/06/01 04:09:02;;;;;;;14.20;9.80;;;13.30;99.90;;;13.75;79.43;101188.94;4842220;29;20466;-67
2022/06/01 04:11:31;;;;;;;11.13;10.02;;;13.30;99.90;;;12.77;79.89;101027.13;4841901;29;20489;-67
2022/06/01 04:13:59;;;;;;;11.43;10.30;;;13.30;99.90;;;13.82;80.38;101195.94;4842169;29;20133;-68
2022/06/01 04:16:28;;;;;;;10.93;9.98;;;13.40;99.90;;;13.93;80.39;101194.03;4841983;29;20050;-67
2022/06/01 04:18:57;;;;;;;11.25;9.82;;;13.50;99.90;;;13.93;80.41;101191.38;4841876;29;20133;-67
2022/06/01 04:21:27;;;;;;;10.45;9.43;;;13.50;99.90;;;13.99;80.22;101193.06;4840738;29;20052;-66
2022/06/01 04:24:02;;;;;;;11.13;10.00;;;13.50;99.90;;;14.02;80.24;101198.34;4841792;29;20073;-67
2022/06/01 04:26:30;;;;;;;11.93;10.45;;;13.60;99.90;;;14.03;79.82;101190.31;4841914;29;20046;-69
2022/06/01 04:28:59;;;;;;;10.65;9.75;;;13.60;99.90;;;14.07;80.04;101193.84;4841795;29;20537;-68
2022/06/01 04:31:28;;;;;;;10.50;9.60;;;13.70;99.90;;;14.13;80.01;101194.63;4840837;29;20077;-69
2022/06/01 04:33:57;;;;;;;12.77;9.80;;;13.70;99.90;;;14.14;79.78;101216.81;4842369;29;20066;-68
2022/06/01 04:36:25;;;;;;;13.10;10.98;;;13.70;99.90;;;14.12;79.45;101199.97;4842992;29;20531;-68
2022/06/01 04:38:55;;;;;;;11.82;10.02;;;13.70;99.90;;;14.09;79.02;101198.22;4845318;29;20050;-69
2022/06/01 04:41:24;;;;;;;13.55;10.35;;;13.70;99.90;;;14.04;79.22;101191.22;4845484;29;20061;-68
2022/06/01 04:43:52;;;;;;;11.10;10.10;;;13.70;99.90;;;14.07;79.05;101191.19;4845144;29;20121;-68
2022/06/01 04:46:20;;;;;;;11.70;10.50;;;13.70;99.90;;;14.10;79.26;101200.00;4845384;29;20082;-69
2022/06/01 04:48:49;;;;;;;10.73;9.73;;;13.70;99.90;;;14.19;79.28;101201.66;4845293;29;20058;-68
2022/06/01 04:51:18;;;;;;;11.05;10.05;;;13.80;99.90;;;14.11;79.42;101182.28;4845004;29;20072;-68
2022/06/01 04:53:46;;;;;;;11.48;9.80;;;13.90;99.90;;;14.42;79.06;101204.88;4845000;29;20050;-68
2022/06/01 04:56:16;;;;;;;10.68;9.70;;;14.00;99.90;;;14.58;79.08;101208.22;4844931;29;20134;-69
2022/06/01 04:58:44;;;;;;;11.00;9.88;;;14.10;99.90;;;14.62;79.06;101199.28;4844803;29;20450;-68
2022/06/01 05:01:13;;;;;;;11.40;10.18;;;14.20;99.90;;;14.74;79.56;101207.06;4845224;29;20049;-69
2022/06/01 05:03:42;;;;;;;10.80;9.70;;;14.30;99.90;;;14.54;79.42;101159.47;4828494;29;20398;-69
2022/06/01 05:06:10;;;;;;;11.07;9.82;;;14.40;99.90;;;14.97;79.23;101211.13;4844877;29;20057;-69
2022/06/01 05:08:39;;;;;;;10.88;8.98;;;14.50;99.90;;;15.13;78.97;101212.63;4844841;29;20073;-69
2022/06/01 05:11:07;;;;;;;11.13;10.10;;;14.70;99.90;;;15.32;78.86;101211.38;4843587;29;20462;-69
2022/06/01 05:13:37;;;;;;;11.00;9.90;;;14.80;99.90;;;15.51;78.70;101222.63;4844598;29;20042;-69
2022/06/01 05:16:07;;;;;;;11.63;9.85;;;15.00;99.90;;;15.32;78.11;101203.41;4844533;29;20133;-69
2022/06/01 05:18:36;;;;;;;10.13;9.23;;;15.10;99.90;;;15.48;78.42;101224.47;4844756;29;20046;-69
2022/06/01 05:21:04;;;;;;;10.63;9.63;;;15.10;99.90;;;15.58;78.45;101282.91;4844471;29;20042;-69
2022/06/01 05:23:33;;;;;;;10.88;9.68;;;15.20;99.90;;;15.69;79.02;101224.94;4843498;29;20497;-69
2022/06/01 05:26:01;;;;;;;11.63;9.45;;;15.30;99.90;;;15.87;79.18;101229.88;4844702;29;20106;-69
2022/06/01 05:28:33;;;;;;;11.90;9.88;;;15.40;99.90;;;15.88;78.81;101204.09;4844355;29;20133;-69
2022/06/01 05:31:05;;;;;;;10.80;9.73;;;15.60;99.90;;;15.80;78.77;101172.25;4844413;29;20098;-69
2022/06/01 05:33:34;;;;;;;13.60;10.30;;;15.70;99.90;;;16.28;78.56;101226.34;4844556;29;20049;-69
2022/06/01 05:36:03;;;;;;;12.52;9.50;;;15.80;99.90;;;16.43;78.80;101231.38;4844224;29;20125;-69
2022/06/01 05:38:31;;;;;;;10.98;9.77;;;16.00;99.90;;;16.53;78.55;101232.06;4844103;29;20129;-69
2022/06/01 05:41:01;;;;;;;10.82;8.20;;;16.20;99.90;;;16.58;77.55;101228.38;4844086;29;20079;-69
2022/06/01 05:43:29;;;;;;;7.03;6.30;;;16.20;99.90;;;16.61;75.77;101230.97;4844368;29;20057;-69
2022/06/01 05:45:57;;;;;;;7.00;5.90;;;16.30;99.90;;;16.41;76.05;101226.97;4843993;29;20092;-69
2022/06/01 05:48:27;;;;;;;10.52;5.72;;;16.10;99.90;;;16.40;75.75;101234.09;4843869;29;20092;-69
2022/06/01 05:50:59;;;;;;;8.82;6.13;;;16.00;99.90;;;16.38;75.95;101237.69;4843940;29;20128;-68
2022/06/01 05:53:28;;;;;;;6.60;5.13;;;16.00;99.90;;;16.32;74.20;101230.69;4844331;29;20564;-69
2022/06/01 05:55:56;;;;;;;6.55;5.25;;;15.90;99.90;;;16.35;75.15;101236.00;4843897;29;20054;-69
2022/06/01 05:58:28;;;;;;;6.53;5.63;;;16.00;99.90;;;16.45;74.10;101237.56;4843617;29;20046;-68
2022/06/01 06:01:02;;;;;;;10.10;5.35;;;16.00;99.90;;;16.38;74.92;101243.91;4844391;29;20052;-69
2022/06/01 06:03:32;;;;;;;7.05;4.90;;;16.10;99.90;;;16.00;74.69;101233.19;4843901;29;20571;-69
2022/06/01 06:06:15;;;;;;;8.90;5.03;;;15.70;99.90;;;16.08;74.07;101237.47;4844015;29;20045;-69
2022/06/01 06:08:48;;;;;;;5.82;4.95;;;15.70;99.90;;;16.02;74.24;101250.06;4844395;29;20054;-69
2022/06/01 06:11:25;;;;;;;5.90;5.38;;;15.70;99.90;;;16.00;73.78;101219.84;4843654;29;20086;-69
2022/06/01 06:13:54;;;;;;;7.70;4.85;;;15.70;99.90;;;16.01;72.95;101210.91;4842700;29;20058;-69
2022/06/01 06:16:23;;;;;;;6.95;4.82;;;16.00;99.90;;;16.26;71.81;101245.06;4843466;29;20038;-69
2022/06/01 06:18:56;;;;;;;6.10;4.93;;;16.00;99.90;;;16.41;72.75;101253.66;4843317;29;20149;-68
2022/06/01 06:21:25;;;;;;;5.28;4.88;;;16.00;99.90;;;16.41;72.63;101264.34;4843350;29;20125;-69
2022/06/01 06:23:54;;;;;;;5.70;5.13;;;16.10;99.90;;;16.34;72.56;101268.94;4843291;29;20412;-69
2022/06/01 06:26:23;;;;;;;5.60;5.10;;;16.00;99.90;;;16.49;72.45;101276.63;4843440;29;20481;-69
2022/06/01 06:28:51;;;;;;;5.15;4.65;;;16.10;99.90;;;16.50;71.63;101274.84;4843009;29;20056;-69
2022/06/01 06:31:20;;;;;;;6.00;5.07;;;16.10;99.90;;;16.44;70.86;101251.81;4843007;29;20050;-69
2022/06/01 06:33:48;;;;;;;5.30;4.45;;;16.30;99.90;;;16.58;70.85;101272.91;4843419;29;20165;-68
2022/06/01 06:36:18;;;;;;;5.45;4.95;;;16.20;99.90;;;16.75;71.22;101274.28;4842916;29;20124;-68
2022/06/01 06:38:46;;;;;;;6.45;5.03;;;16.40;99.90;;;16.80;71.33;101283.03;4843425;29;20141;-69
2022/06/01 06:41:15;;;;;;;6.97;4.97;;;16.50;99.90;;;16.97;71.50;101283.56;4842114;29;20500;-68
2022/06/01 06:43:44;;;;;;;6.55;4.60;;;16.60;99.90;;;17.01;70.67;101284.34;4843063;29;20054;-69
2022/06/01 06:46:16;;;;;;;5.75;4.22;;;16.70;99.90;;;17.09;70.51;101282.38;4826549;29;20114;-69
2022/06/01 06:48:48;;;;;;;4.38;3.90;;;16.70;99.90;;;17.17;69.91;101285.72;4843019;29;20077;-69
2022/06/01 06:51:20;;;;;;;5.88;4.53;;;16.80;99.90;;;17.26;69.50;101290.84;4843013;29;20053;-74
2022/06/01 06:53:49;;;;;;;6.88;4.25;;;16.90;99.90;;;17.30;68.48;101291.66;4843220;29;20054;-75
2022/06/01 06:56:20;;;;;;;5.25;4.75;;;16.90;99.90;;;17.20;67.58;101285.66;4843083;29;20096;-72
2022/06/01 06:58:50;;;;;;;6.13;4.53;;;17.00;99.90;;;17.41;68.02;101292.25;4841373;29;20141;-74
2022/06/01 07:01:18;;;;;;;8.88;5.10;;;17.00;99.90;;;17.51;66.91;101299.16;4842844;29;20106;-76
2022/06/01 07:03:47;;;;;;;6.38;4.50;;;17.20;99.90;;;17.35;66.93;101295.97;4842885;29;20133;-71
2022/06/01 07:06:23;;;;;;;5.47;4.10;;;17.00;99.90;;;17.39;66.16;101303.00;4842952;29;20073;-72
2022/06/01 07:08:55;;;;;;;5.50;4.40;;;17.10;99.90;;;17.09;64.55;101309.97;4842990;29;20058;-69
2022/06/01 07:11:26;;;;;;;5.57;4.15;;;16.80;99.90;;;16.87;66.01;101298.03;4842722;29;20045;-71
2022/06/01 07:13:56;;;;;;;6.15;4.30;;;16.60;99.90;;;17.03;65.73;101311.94;4841762;29;20077;-71
2022/06/01 07:16:27;;;;;;;5.57;4.30;;;16.60;99.90;;;17.14;65.02;101300.06;4842663;29;20310;-71
2022/06/01 07:18:59;;;;;;;4.47;4.05;;;16.90;99.90;;;17.28;64.45;101293.47;4842945;29;20046;-71
2022/06/01 07:21:30;;;;;;;7.00;4.32;;;17.10;99.90;;;17.53;64.34;101321.41;4843069;29;20557;-71
2022/06/01 07:24:00;;;;;;;5.53;3.92;;;17.20;99.90;;;17.29;64.12;101292.56;4842766;29;20060;-71
2022/06/01 07:26:32;;;;;;;4.60;3.85;;;17.10;99.90;;;17.03;63.82;101291.41;4842588;29;20129;-71
2022/06/01 07:29:01;;;;;;;5.20;4.53;;;16.90;99.90;;;17.01;64.31;101319.97;4842679;29;20132;-71
2022/06/01 07:31:30;;;;;;;4.70;4.15;;;16.80;99.90;;;16.79;64.43;101315.16;4842653;29;20077;-71
2022/06/01 07:33:59;;;;;;;6.38;4.60;;;16.60;99.90;;;16.75;65.26;101314.34;4842639;29;20050;-72
2022/06/01 07:36:31;;;;;;;4.63;4.07;;;16.50;99.90;;;17.01;66.72;101322.63;4842464;29;20061;-74
2022/06/01 07:44:38;;;;;;;6.90;5.00;;;16.80;99.90;;;17.23;64.24;101324.81;4811586;29;20151;-73
2022/06/01 07:47:08;;;;;;;4.40;4.00;;;16.90;99.90;;;16.99;62.62;101319.09;4842109;29;20515;-73
2022/06/01 07:49:56;;;;;;;6.13;4.22;;;16.70;99.90;;;16.99;63.54;101332.47;4842158;29;20042;-72
2022/06/01 07:52:46;;;;;;;4.68;3.85;;;16.60;99.90;;;17.13;62.19;101332.16;4842115;29;20501;-73
2022/06/01 07:55:14;;;;;;;4.53;3.80;;;16.80;99.90;;;17.22;61.44;101331.06;4826109;29;20385;-73
2022/06/01 07:57:43;;;;;;;5.53;4.05;;;16.90;99.90;;;17.55;62.67;101327.59;4842447;29;20098;-71
2022/06/01 08:00:13;;;;;;;4.30;3.90;;;17.20;99.90;;;17.55;62.87;101324.91;4842384;29;20122;-72
2022/06/01 08:02:42;;;;;;;6.68;3.97;;;17.20;99.90;;;17.49;61.01;101322.41;4842109;29;20134;-71
2022/06/01 08:05:15;;;;;;;4.45;3.95;;;17.20;99.90;;;17.50;60.99;101300.09;4842032;29;20053;-69
2022/06/01 08:07:46;;;;;;;5.53;4.45;;;17.30;99.90;;;17.98;61.26;101337.09;4842369;29;20128;-72
2022/06/01 08:10:19;;;;;;;3.90;3.60;;;17.60;99.90;;;18.22;60.67;101332.88;4843430;29;20061;-73
2022/06/01 08:15:35;;;;;;;4.63;4.22;;;17.80;99.90;;;17.94;59.86;101334.56;4845914;29;20042;-71
2022/06/01 08:18:04;;;;;;;4.80;4.00;;;17.60;99.90;;;17.99;59.58;101332.63;4845495;29;20050;-71
2022/06/01 08:20:33;;;;;;;5.10;4.57;;;17.70;99.90;;;18.28;60.25;101339.84;4845167;29;20515;-71
2022/06/01 08:23:05;;;;;;;11.00;4.22;;;17.90;99.90;;;18.31;59.46;101321.03;4829117;29;20053;-73
2022/06/01 08:25:34;;;;;;;6.22;4.35;;;18.10;99.90;;;18.27;59.23;101341.69;4845519;29;20102;-71
2022/06/01 08:28:04;;;;;;;4.10;3.80;;;18.00;99.90;;;18.12;59.17;101344.75;4845700;29;20106;-74
2022/06/01 08:30:35;;;;;;;94.10;67.82;;;18.00;99.90;;;18.22;59.43;101345.38;4845425;29;20080;-72
2022/06/01 08:33:05;;;;;;;6.68;6.00;;;18.00;99.90;;;18.45;59.59;101346.53;4845502;29;20129;-70
2022/06/01 08:35:37;;;;;;;4.80;4.30;;;18.20;99.90;;;18.45;58.39;101318.84;4845584;29;20050;-73
2022/06/01 08:38:07;;;;;;;4.65;4.25;;;18.30;99.90;;;18.57;57.30;101347.97;4845355;29;20077;-73
2022/06/01 08:40:47;;;;;;;5.10;4.03;;;18.30;99.90;;;18.10;57.97;101338.56;4845493;29;20049;-73
2022/06/01 08:43:20;;;;;;;4.53;4.10;;;18.00;99.90;;;18.15;58.58;101335.78;4845530;29;20461;-73
2022/06/01 08:45:52;;;;;;;4.13;3.72;;;18.00;99.90;;;18.40;57.63;101350.22;4845404;29;20120;-73
2022/06/01 08:48:31;;;;;;;6.10;5.18;;;18.10;99.90;;;18.35;57.02;101328.91;4845250;29;20050;-73
2022/06/01 08:50:59;;;;;;;5.18;4.50;;;18.20;99.90;;;18.34;56.70;101351.28;4845071;29;20061;-73
2022/06/01 08:53:29;;;;;;;5.03;4.20;;;18.00;99.90;;;18.30;57.85;101351.41;4845274;29;20077;-73
2022/06/01 08:56:07;;;;;;;4.73;4.23;;;17.90;99.90;;;18.40;56.72;101344.88;4845377;29;20062;-73
2022/06/01 08:58:43;;;;;;;5.85;4.93;;;18.10;99.90;;;18.43;55.48;101351.03;4844716;29;20065;-73
2022/06/01 09:01:21;;;;;;;6.47;3.83;;;18.10;99.90;;;18.75;55.69;101360.84;4844968;29;20075;-73
2022/06/01 09:04:04;;;;;;;5.05;4.00;;;18.40;99.90;;;18.84;55.77;101363.22;4844847;29;20058;-73
2022/06/01 09:06:39;;;;;;;4.63;4.07;;;18.50;99.90;;;18.97;55.23;101371.78;4845291;29;20054;-73
2022/06/01 09:09:19;;;;;;;10.05;4.20;;;18.60;99.90;;;18.78;56.15;101377.69;4844850;29;20053;-73
2022/06/01 09:11:48;;;;;;;6.82;3.85;;;18.60;99.90;;;18.75;55.10;101377.78;4845121;29;20392;-73
2022/06/01 09:14:22;;;;;;;6.32;4.03;;;18.40;99.90;;;18.77;54.28;101349.16;4844587;29;20038;-73
2022/06/01 09:16:55;;;;;;;6.85;4.85;;;18.50;99.90;;;18.85;54.86;101379.25;4844825;29;20081;-73
2022/06/01 09:19:30;;;;;;;6.43;4.93;;;18.50;99.90;;;18.83;56.33;101375.75;4844461;29;20477;-73
2022/06/01 09:25:00;;;;;;;5.95;5.07;;;18.40;99.90;;;18.13;57.92;101386.69;4832923;29;20062;-73
2022/06/01 09:27:38;;;;;;;5.60;5.10;;;17.90;99.90;;;17.97;58.10;101390.69;4844698;29;20099;-73
2022/06/01 09:30:29;;;;;;;5.28;4.78;;;17.70;99.90;;;17.54;59.60;101395.38;4844659;29;20141;-73
2022/06/01 09:33:24;;;;;;;5.25;4.80;;;17.20;99.90;;;17.51;59.21;101376.72;4844656;29;20054;-73
2022/06/01 09:36:14;;;;;;;6.00;5.40;;;17.30;99.90;;;17.71;58.62;101399.38;4844281;29;20054;-74
2022/06/01 09:38:51;;;;;;;5.90;5.35;;;17.30;99.90;;;17.45;60.23;101387.53;4844442;29;20125;-73
2022/06/01 09:41:31;;;;;;;5.93;5.38;;;17.20;99.90;;;17.28;61.34;101393.31;4844172;29;20458;-73
2022/06/01 09:44:02;;;;;;;;;;;17.00;99.90;;;17.23;60.61;101359.59;4844735;29;20204;-73
2022/06/01 09:46:34;;;;;;;5.88;5.10;;;17.10;99.90;;;17.58;61.02;101373.88;4844491;29;19924;-73
2022/06/01 09:49:10;;;;;;;6.32;5.28;;;17.30;99.90;;;17.99;61.17;101395.09;4844485;29;20564;-73
2022/06/01 09:51:41;;;;;;;7.53;4.68;;;17.60;99.90;;;16.11;59.80;101097.72;4827938;29;20545;-73
2022/06/01 09:54:15;;;;;;;4.97;4.47;;;17.60;99.90;;;17.83;60.97;101375.00;4844372;29;20042;-73
2022/06/01 09:56:48;;;;;;;6.28;4.38;;;17.60;99.90;;;17.88;59.12;101389.16;4844216;29;20122;-73
2022/06/01 10:08:13;;;;;;;5.50;4.90;;;17.40;99.90;;;17.87;59.98;101407.91;4843983;29;20050;-74
2022/06/01 10:10:56;;;;;;;7.15;5.68;;;17.50;99.90;;;17.75;60.67;101414.47;4843945;29;20069;-73
2022/06/01 10:13:33;;;;;;;5.95;4.78;;;17.50;99.90;;;18.20;61.62;101417.75;4843709;29;20049;-73
2022/06/01 10:16:12;;;;;;;6.60;5.40;;;17.80;99.90;;;17.76;60.10;101343.09;4843654;29;20106;-73
2022/06/01 10:18:44;;;;;;;5.68;5.15;;;17.90;99.90;;;18.03;59.53;101412.84;4843724;29;20045;-73
2022/06/01 10:21:19;;;;;;;6.38;5.43;;;17.80;99.90;;;17.82;59.83;101405.38;4842612;29;20053;-73
2022/06/01 10:23:53;;;;;;;9.20;4.97;;;17.60;99.90;;;17.95;59.50;101366.66;4842557;29;20137;-73
2022/06/01 10:26:26;;;;;;;5.80;5.30;;;17.80;99.90;;;17.98;57.87;101417.41;4843616;29;20074;-73
2022/06/01 10:29:01;;;;;;;10.50;5.50;;;17.70;99.90;;;17.82;60.34;101399.13;4843905;29;20046;-73
2022/06/01 10:31:34;;;;;;;7.13;6.43;;;17.60;99.90;;;17.94;60.56;101421.09;4843712;29;20472;-73
2022/06/01 10:34:11;;;;;;;6.38;5.85;;;17.60;99.90;;;17.67;60.20;101421.78;4842295;29;20061;-72
2022/06/01 10:36:47;;;;;;;6.28;4.50;;;17.40;99.90;;;17.78;58.96;101426.88;4843104;29;20050;-73
2022/06/01 10:39:23;;;;;;;4.57;3.97;;;17.40;99.90;;;18.07;58.37;101431.50;4843281;29;20046;-72
2022/06/01 10:42:04;;;;;;;4.30;3.90;;;17.60;99.90;;;18.07;58.73;101437.75;4842982;29;20046;-72
2022/06/01 10:44:45;;;;;;;4.97;4.53;;;17.80;99.90;;;18.18;59.31;101432.97;4843253;29;20054;-73
2022/06/01 10:47:19;;;;;;;4.63;4.15;;;17.90;99.90;;;17.91;57.27;101439.03;4843085;29;20524;-73
2022/06/01 10:49:56;;;;;;;5.00;4.50;;;17.60;99.90;;;18.21;58.54;101461.47;4843327;29;20128;-72
2022/06/01 10:52:30;;;;;;;5.88;5.38;;;17.80;99.90;;;18.45;57.80;101442.09;4842955;29;20050;-73
2022/06/01 10:55:16;;;;;;;4.95;4.53;;;18.10;99.90;;;18.78;56.10;101441.13;4842939;29;20077;-72
2022/06/01 10:57:48;;;;;;;9.77;4.60;;;18.40;99.90;;;18.76;56.23;101441.19;4843108;29;20050;-72